Nearby METAR Reports

 

KPTW - Pottstown, Pennsylvania, USA
Distance from station: NE 6mi, 10km
Updated: 04/25/2018 8:10am
Light rain, Mist, Overcast
Light rain, Mist, Overcast
 Wind from ESE
Wind: ESE 6 mph , 9 km/h
Temperature: 54°F , 12°C
Dew Point: 54°F , 12°C
Humidity: 100%
Barometer: 29.86 inHg , 1011.2 hPa
Summary: Light rain, Mist
Clouds: Overcast
Visibility: 1 mile , 2 km
Cloud details: Overcast 400 ft
2018/04/25 12:10 KPTW 251210Z AUTO 11005KT 1SM -RA BR OVC004 12/12 A2986 RMK AO2 P0000 T01220122
KMQS - Coatesville, Pennsylvania, USA
Distance from station: SW 18mi, 29km
Updated: 04/25/2018 8:15am
Light rain, Overcast
Light rain, Overcast
 Wind from E
Wind: E 13 mph , 20 km/h
Temperature: 55°F , 13°C
Dew Point: 55°F , 13°C
Humidity: 100%
Barometer: 29.84 inHg , 1010.5 hPa
Summary: Light Rain
Clouds: Overcast
Visibility: 1/2 mile , 0.8 km
Cloud details: Overcast 100 ft
2018/04/25 12:15 KMQS 251215Z AUTO 09011KT 1/2SM -RA OVC001 13/13 A2984 RMK AO2
 
KLOM - Philly Wings F, Pennsylvania, USA
Distance from station: E 19mi, 31km
Updated: 04/25/2018 8:15am
Overcast
Overcast
 Wind from E
Wind: E 6 mph , 9 km/h
Temperature: 54°F , 12°C
Dew Point: 54°F , 12°C
Humidity: 100%
Barometer: 29.86 inHg , 1011.2 hPa
Clouds: Overcast
Visibility: 1 mile , 2 km
Cloud details: Overcast 300 ft
2018/04/25 12:15 KLOM 251215Z AUTO 08005KT 1SM OVC003 12/12 A2986 RMK AO1
KRDG - Reading, Pennsylvania, USA
Distance from station: NW 22mi, 36km
Updated: 04/25/2018 7:54am
Light rain, Overcast
Light rain, Overcast
 Wind from NNE
Wind: NNE 5 mph , 7 km/h
Temperature: 55°F , 13°C
Dew Point: 55°F , 13°C
Humidity: 100%
Barometer: 29.85 inHg , 1010.8 hPa
Summary: Light Rain
Clouds: Overcast
Visibility: 3 miles , 5 km
Cloud details: Overcast 800 ft
2018/04/25 11:54 KRDG 251154Z 02004KT 3SM -RA OVC008 13/13 A2985 RMK AO2 SFC VIS 7 CIG 007V011 SLP111 P0001 60054 70065 T01280128 10133 20111 56012
 
KUKT - Quakertown Arp, Pennsylvania, USA
Distance from station: NE 22mi, 36km
Updated: 04/25/2018 8:15am
Mist, Overcast
Mist, Overcast
 Wind from E
Wind: E 9 mph , 15 km/h
Temperature: 54°F , 12°C
Dew Point: 55°F , 13°C
Humidity: 107%
Barometer: 29.86 inHg , 1011.2 hPa
Summary: Mist
Clouds: Overcast
Visibility: 1 mile , 2 km
Cloud details: Overcast 500 ft
2018/04/25 12:15 KUKT 251215Z AUTO 10008KT 1SM BR OVC005 12/13 A2986 RMK A01
KXLL - Allentown Queen, Pennsylvania, USA
Distance from station: NNE 28mi, 46km
Updated: 04/25/2018 8:15am
Drizzle, Overcast
Drizzle, Overcast
 Wind from ENE
Wind: ENE 9 mph , 15 km/h
Temperature: 55°F , 13°C
Dew Point: 54°F , 12°C
Humidity: 94%
Barometer: 29.87 inHg , 1011.5 hPa
Summary: Drizzle
Clouds: Overcast
Visibility: 2 miles , 3 km
Cloud details: Mostly Cloudy 800 ft
Overcast 1400 ft
2018/04/25 12:15 KXLL 251215Z AUTO 07008KT 2SM DZ BKN008 OVC014 13/12 A2987 RMK AO2
 
KDYL - Doylestown, Pennsylvania, USA
Distance from station: ENE 29mi, 47km
Updated: 04/25/2018 8:16am
Light rain, Mist, Overcast
Light rain, Mist, Overcast
 Wind from calm
Wind: Calm
Temperature: 54°F , 12°C
Dew Point: 54°F , 12°C
Humidity: 100%
Barometer: 29.85 inHg , 1010.8 hPa
Summary: Light rain, Mist
Clouds: Overcast
Visibility: 3 miles , 5 km
Cloud details: Overcast 400 ft
2018/04/25 12:16 KDYL 251216Z AUTO 00000KT 3SM -RA BR OVC004 12/12 A2985 RMK AO2 RAB09 P0000 T01220122
KPHL - Philadelphia, Pennsylvania, USA
Distance from station: SE 30mi, 48km
Updated: 04/25/2018 8:21am
Overcast
Overcast
 Wind from E
Wind: E 12 mph , 19 km/h
Temperature: 55°F , 13°C
Dew Point: 55°F , 13°C
Humidity: 100%
Barometer: 29.84 inHg , 1010.5 hPa
Clouds: Overcast
Visibility: 7 miles , 11 km
Cloud details: Overcast 400 ft
2018/04/25 12:21 KPHL 251221Z 09010KT 7SM OVC004 13/13 A2984 RMK AO2 T01330133 $
 
KPNE - Philadelphia/Ne, Pennsylvania, USA
Distance from station: E 33mi, 53km
Updated: 04/25/2018 8:18am
Mist, Overcast
Mist, Overcast
 Wind from ENE
Wind: ENE 8 mph , 13 km/h
Temperature: 57°F , 14°C
Dew Point: 55°F , 13°C
Humidity: 94%
Barometer: 29.87 inHg , 1011.5 hPa
Summary: Mist
Clouds: Overcast
Visibility: 2 miles , 3 km
Cloud details: Overcast 300 ft
2018/04/25 12:18 KPNE 251218Z 07007KT 2SM BR OVC003 14/13 A2987 RMK AO2 T01440128
KABE - Allentown, Pennsylvania, USA
Distance from station: NNE 34mi, 55km
Updated: 04/25/2018 8:14am
Light rain, Mist, Overcast
Light rain, Mist, Overcast
 Wind from E
Wind: E 9 mph , 15 km/h
Temperature: 55°F , 13°C
Dew Point: 52°F , 11°C
Humidity: 88%
Barometer: 29.87 inHg , 1011.5 hPa
Summary: Light rain, Mist
Clouds: Overcast
Visibility: 3 miles , 5 km
Cloud details: Overcast 800 ft
2018/04/25 12:14 KABE 251214Z 09008KT 3SM -RA BR OVC008 13/11 A2987 RMK AO2 P0000 T01330111
 
KILG - Wilmington, Delaware, USA
Distance from station: S 35mi, 56km
Updated: 04/25/2018 7:51am
Mist, Overcast
Mist, Overcast
 Wind from E
Wind: E 8 mph , 13 km/h
Temperature: 57°F , 14°C
Dew Point: 57°F , 14°C
Humidity: 100%
Barometer: 29.84 inHg , 1010.5 hPa
Summary: Mist
Clouds: Overcast
Visibility: 1 3/4 miles , 2.8 km
Cloud details: Overcast 300 ft
2018/04/25 11:51 KILG 251151Z 08007KT 1 3/4SM BR OVC003 14/14 A2984 RMK AO2 SLP103 60026 70044 T01390139 10139 20128 56007 $
KLNS - Lancaster, Pennsylvania, USA
Distance from station: W 36mi, 57km
Updated: 04/25/2018 8:22am
Light rain, Mist, Overcast
Light rain, Mist, Overcast
 Wind from NE
Wind: NE 9 mph , 15 km/h
Temperature: 55°F , 13°C
Dew Point: 54°F , 12°C
Humidity: 94%
Barometer: 29.83 inHg , 1010.2 hPa
Summary: Light rain, Mist
Clouds: Overcast
Visibility: 1 1/2 miles , 2.4 km
Cloud details: Partly Cloudy 700 ft
Overcast 1200 ft
2018/04/25 12:22 KLNS 251222Z 04008KT 1 1/2SM -RA BR SCT007 OVC012 13/12 A2983 RMK AO2 P0003 T01280122
 
KTTN - Trenton, New Jersey, USA
Distance from station: E 44mi, 70km
Updated: 04/25/2018 8:30am
Light rain, Mist, Overcast
Light rain, Mist, Overcast
 Wind from E
Wind: E 9 mph , 15 km/h
Temperature: 55°F , 13°C
Dew Point: 55°F , 13°C
Humidity: 100%
Barometer: 29.86 inHg , 1011.2 hPa
Summary: Light rain, Mist
Clouds: Overcast
Visibility: 4 miles , 6 km
Cloud details: Overcast 300 ft
2018/04/25 12:30 KTTN 251230Z 10008KT 4SM -RA BR OVC003 13/13 A2986 RMK AO2 P0000 T01330128
KVAY - Mount Holly, New Jersey, USA
Distance from station: ESE 45mi, 73km
Updated: 04/25/2018 7:59am
Light rain, Mist, Overcast
Light rain, Mist, Overcast
 Wind from E
Wind: E 7 mph , 11 km/h
Temperature: 57°F , 14°C
Dew Point: 57°F , 14°C
Humidity: 100%
Barometer: 29.85 inHg , 1010.8 hPa
Summary: Light rain, Mist
Clouds: Overcast
Visibility: 3 miles , 5 km
Cloud details: Overcast 500 ft
2018/04/25 11:59 KVAY 251159Z AUTO 10006KT 3SM -RA BR OVC005 14/14 A2985 RMK AO2 P0000 T01390139
 
KMUI - Muir Aaf/Indiant, Pennsylvania, USA
Distance from station: WNW 52mi, 84km
Updated: 04/25/2018 7:56am
Light rain, Mist, Overcast
Light rain, Mist, Overcast
 Wind from NE
Wind: NE 5 mph , 7 km/h
Temperature: 54°F , 12°C
Dew Point: 54°F , 12°C
Humidity: 100%
Barometer: 29.85 inHg , 1010.8 hPa
Summary: Light rain, Mist
Clouds: Overcast
Visibility: 4 miles , 6 km
Cloud details: Overcast 700 ft
2018/04/25 11:56 KMUI 251156Z 05004KT 4SM -RA BR OVC007 12/12 A2985 RMK AO2A RAE1059RAB11 BKN V OVC SLP111 P0015 60037 70067 T01190116 10119 20107 57013 $
KAPG - Aberdeen/Phillip, Maryland, USA
Distance from station: SSW 56mi, 91km
Updated: 04/25/2018 8:00am
Light rain, Fog, Overcast
Light rain, Fog, Overcast
 Wind from ENE
Wind: ENE 8 mph , 13 km/h
Temperature: 57°F , 14°C
Dew Point: 55°F , 13°C
Humidity: 94%
Barometer: 29.82 inHg , 1009.8 hPa
Summary: Light rain, Fog
Clouds: Overcast
Visibility: 1/2 mile , 0.8 km
Cloud details: Overcast 300 ft
2018/04/25 12:00 KAPG 251200Z 07007KT 1/2SM -RA FG OVC003 14/13 A2982 RMK SLP101 P0001 T01350134 10135 20128 $
 
KWRI - Wrightst/Mcguire, New Jersey, USA
Distance from station: E 56mi, 91km
Updated: 04/25/2018 7:56am
Light rain, Mist, Overcast
Light rain, Mist, Overcast
 Wind from E
Wind: E 8 mph , 13 km/h
Temperature: 55°F , 13°C
Dew Point: 55°F , 13°C
Humidity: 100%
Barometer: 29.85 inHg , 1010.8 hPa
Summary: Light rain, Mist
Clouds: Overcast
Visibility: 4 miles , 6 km
Cloud details: Overcast 300 ft
2018/04/25 11:56 KWRI 251156Z 10007KT 4SM -RA BR OVC003 13/13 A2985 RMK AO2A TWR VIS 1 1/4 VIS 2 RWY06/24 VIS 2 3/4 RWY18 RAB26 CIG 002 RWY18 SLP108 P0002 60014 70025 T01300128 10130 20120 57018
KSMQ - Somerville, New Jersey, USA
Distance from station: ENE 59mi, 96km
Updated: 04/25/2018 8:32am
Light rain, Mist, Overcast
Light rain, Mist, Overcast
 Wind from E
Wind: E 6 mph , 9 km/h
Temperature: 54°F , 12°C
Dew Point: 54°F , 12°C
Humidity: 100%
Barometer: 29.87 inHg , 1011.5 hPa
Summary: Light rain, Mist
Clouds: Overcast
Visibility: 2 miles , 3 km
Cloud details: Overcast 1000 ft
2018/04/25 12:32 KSMQ 251232Z AUTO 08005KT 2SM -RA BR OVC010 12/12 A2987 RMK AO2 RAB12 P0002 T01220122
 
KMDT - Middletown, Pennsylvania, USA
Distance from station: W 60mi, 97km
Updated: 04/25/2018 8:12am
Light rain, Mist, Overcast
Light rain, Mist, Overcast
 Wind from calm
Wind: Calm
Temperature: 54°F , 12°C
Dew Point: 54°F , 12°C
Humidity: 100%
Barometer: 29.83 inHg , 1010.2 hPa
Summary: Light rain, Mist
Clouds: Overcast
Visibility: 1 1/2 miles , 2.4 km
Cloud details: Partly Cloudy 500 ft
Overcast 1600 ft
2018/04/25 12:12 KMDT 251212Z 00000KT 1 1/2SM R13/4500VP6000FT -RA BR SCT005 OVC016 12/12 A2983 RMK AO2 TWR VIS 2 1/2 P0002 T01220117
KMIV - Millville, New Jersey, USA
Distance from station: SSE 63mi, 101km
Updated: 04/25/2018 8:29am
Overcast
Overcast
 Wind from ESE
Wind: ESE 12 mph , 19 km/h
Temperature: 59°F , 15°C
Dew Point: 57°F , 14°C
Humidity: 94%
Barometer: 29.80 inHg , 1009.1 hPa
Clouds: Overcast
Visibility: 8 miles , 13 km
Cloud details: Overcast 400 ft
2018/04/25 12:29 KMIV 251229Z AUTO 11010KT 8SM OVC004 15/14 A2980 RMK AO2 T01500139